createdAt,value
2018-09-05T00:00:08.064Z,15.80
2018-09-05T00:02:36.503Z,15.80
2018-09-05T00:05:05.369Z,15.80
2018-09-05T00:07:33.972Z,15.70
2018-09-05T00:10:02.540Z,15.70
2018-09-05T00:12:31.181Z,15.70
2018-09-05T00:14:59.661Z,15.70
2018-09-05T00:17:28.139Z,15.70
2018-09-05T00:19:56.684Z,15.60
2018-09-05T00:22:25.213Z,15.60
2018-09-05T00:24:53.643Z,15.60
2018-09-05T00:27:22.112Z,15.50
2018-09-05T00:29:50.639Z,15.60
2018-09-05T00:32:19.054Z,15.50
2018-09-05T00:34:47.498Z,15.50
2018-09-05T00:37:15.932Z,15.50
2018-09-05T00:39:44.397Z,15.50
2018-09-05T00:42:12.991Z,15.50
2018-09-05T00:44:41.393Z,15.50
2018-09-05T00:47:10.195Z,15.50
2018-09-05T00:49:38.799Z,15.50
2018-09-05T00:52:07.428Z,15.50
2018-09-05T00:54:35.966Z,15.40
2018-09-05T00:57:04.466Z,15.40
2018-09-05T00:59:33.001Z,15.40
2018-09-05T01:02:01.725Z,15.40
2018-09-05T01:04:30.223Z,15.40
2018-09-05T01:06:58.722Z,15.40
2018-09-05T01:09:27.132Z,15.40
2018-09-05T01:11:55.546Z,15.40
2018-09-05T01:14:23.933Z,15.40
2018-09-05T01:16:52.511Z,15.40
2018-09-05T01:19:21.002Z,15.40
2018-09-05T01:21:49.480Z,15.30
2018-09-05T01:24:18.034Z,15.30
2018-09-05T01:26:46.614Z,15.30
2018-09-05T01:29:15.232Z,15.20
2018-09-05T01:31:43.902Z,15.10
2018-09-05T01:34:12.416Z,15.10
2018-09-05T01:36:40.854Z,15.00
2018-09-05T01:39:09.313Z,15.00
2018-09-05T01:41:37.920Z,15.00
2018-09-05T01:44:06.338Z,14.90
2018-09-05T01:46:34.804Z,14.90
2018-09-05T01:49:03.233Z,14.90
2018-09-05T01:51:34.005Z,14.90
2018-09-05T01:54:02.904Z,14.80
2018-09-05T01:56:31.341Z,14.80
2018-09-05T01:58:59.874Z,14.80
2018-09-05T02:01:28.301Z,14.80
2018-09-05T02:03:56.772Z,14.70
2018-09-05T02:06:25.288Z,14.70
2018-09-05T02:08:53.836Z,14.70
2018-09-05T02:11:22.324Z,14.70
2018-09-05T02:13:50.867Z,14.70
2018-09-05T02:16:19.534Z,14.60
2018-09-05T02:18:47.962Z,14.60
2018-09-05T02:21:16.378Z,14.60
2018-09-05T02:23:44.811Z,14.60
2018-09-05T02:26:13.296Z,14.60
2018-09-05T02:28:41.702Z,14.60
2018-09-05T02:31:10.101Z,14.50
2018-09-05T02:33:38.522Z,14.60
2018-09-05T02:36:06.902Z,14.60
2018-09-05T02:38:35.326Z,14.50
2018-09-05T02:41:03.829Z,14.50
2018-09-05T02:43:37.602Z,14.50
2018-09-05T02:46:06.008Z,14.50
2018-09-05T02:48:34.561Z,14.40
2018-09-05T02:51:03.042Z,14.40
2018-09-05T02:53:31.560Z,14.40
2018-09-05T02:56:02.642Z,14.40
2018-09-05T02:58:32.517Z,14.40
2018-09-05T03:01:01.141Z,14.30
2018-09-05T03:03:29.829Z,14.30
2018-09-05T03:05:58.375Z,14.40
2018-09-05T03:08:26.892Z,14.40
2018-09-05T03:10:55.280Z,14.40
2018-09-05T03:13:23.789Z,14.40
2018-09-05T03:15:52.187Z,14.40
2018-09-05T03:18:20.688Z,14.40
2018-09-05T03:20:49.120Z,14.50
2018-09-05T03:23:17.532Z,14.50
2018-09-05T03:25:46.093Z,14.40
2018-09-05T03:28:14.442Z,14.40
2018-09-05T03:30:42.852Z,14.40
2018-09-05T03:33:11.310Z,14.50
2018-09-05T03:35:39.769Z,14.40
2018-09-05T03:38:08.303Z,14.40
2018-09-05T03:40:36.924Z,14.40
2018-09-05T03:43:05.644Z,14.40
2018-09-05T03:45:34.090Z,14.50
2018-09-05T03:48:02.575Z,14.40
2018-09-05T03:50:31.066Z,14.40
2018-09-05T03:52:59.495Z,14.40
2018-09-05T03:55:27.915Z,14.50
2018-09-05T03:57:56.356Z,14.40
2018-09-05T04:00:24.904Z,14.40
2018-09-05T04:02:53.309Z,14.40
2018-09-05T04:05:21.760Z,14.40
2018-09-05T04:07:50.192Z,14.30
2018-09-05T04:10:18.610Z,14.30
2018-09-05T04:12:47.059Z,14.20
2018-09-05T04:15:15.579Z,14.20
2018-09-05T04:17:44.208Z,14.20
2018-09-05T04:20:12.688Z,14.20
2018-09-05T04:22:41.199Z,14.10
2018-09-05T04:25:09.708Z,14.10
2018-09-05T04:27:38.199Z,14.10
2018-09-05T04:30:06.906Z,14.10
2018-09-05T04:32:35.341Z,14.10
2018-09-05T04:35:03.800Z,14.10
2018-09-05T04:37:32.321Z,14.10
2018-09-05T04:40:00.801Z,14.10
2018-09-05T04:42:29.247Z,14.00
2018-09-05T04:44:57.695Z,14.00
2018-09-05T04:47:26.264Z,14.00
2018-09-05T04:49:54.685Z,14.00
2018-09-05T04:52:23.213Z,13.90
2018-09-05T04:54:51.801Z,13.90
2018-09-05T04:57:20.411Z,14.00
2018-09-05T04:59:49.081Z,14.00
2018-09-05T05:02:17.862Z,14.10
2018-09-05T05:04:46.468Z,14.10
2018-09-05T05:07:14.986Z,14.10
2018-09-05T05:09:43.474Z,14.20
2018-09-05T05:12:12.969Z,14.20
2018-09-05T05:14:41.860Z,14.30
2018-09-05T05:17:10.229Z,14.40
2018-09-05T05:19:38.733Z,14.40
2018-09-05T05:22:07.170Z,14.40
2018-09-05T05:24:36.016Z,14.30
2018-09-05T05:27:04.580Z,14.30
2018-09-05T05:29:33.023Z,14.30
2018-09-05T05:32:01.522Z,14.50
2018-09-05T05:34:30.088Z,14.60
2018-09-05T05:36:58.650Z,14.60
2018-09-05T05:39:28.289Z,14.70
2018-09-05T05:41:57.206Z,14.80
2018-09-05T05:44:25.904Z,14.70
2018-09-05T05:46:54.506Z,14.80
2018-09-05T05:49:23.090Z,14.80
2018-09-05T05:51:51.596Z,14.80
2018-09-05T05:54:20.030Z,14.90
2018-09-05T05:56:48.439Z,14.90
2018-09-05T05:59:16.880Z,14.90
2018-09-05T06:01:45.375Z,15.00
2018-09-05T06:04:13.801Z,15.00
2018-09-05T06:06:42.410Z,15.10
2018-09-05T06:09:11.616Z,15.20
2018-09-05T06:11:40.093Z,15.10
2018-09-05T06:14:08.570Z,15.10
2018-09-05T06:16:37.020Z,15.20
2018-09-05T06:19:05.742Z,15.50
2018-09-05T06:21:34.227Z,15.40
2018-09-05T06:24:03.025Z,15.50
2018-09-05T06:26:31.650Z,15.60
2018-09-05T06:29:00.226Z,15.90
2018-09-05T06:31:28.681Z,16.20
2018-09-05T06:33:57.185Z,16.40
2018-09-05T06:36:25.808Z,16.50
2018-09-05T06:38:54.451Z,16.50
2018-09-05T06:41:22.878Z,16.40
2018-09-05T06:43:51.369Z,16.40
2018-09-05T06:46:19.848Z,16.50
2018-09-05T06:48:48.284Z,16.80
2018-09-05T06:51:17.619Z,16.80
2018-09-05T06:53:46.075Z,16.80
2018-09-05T06:56:14.551Z,16.80
2018-09-05T06:58:43.124Z,16.80
2018-09-05T07:01:11.702Z,16.90
2018-09-05T07:03:40.476Z,17.10
2018-09-05T07:06:09.194Z,17.30
2018-09-05T07:08:37.965Z,17.40
2018-09-05T07:11:06.792Z,17.60
2018-09-05T07:13:35.248Z,18.00
2018-09-05T07:16:03.820Z,18.60
2018-09-05T07:18:32.263Z,18.90
2018-09-05T07:21:05.685Z,19.10
2018-09-05T07:23:29.228Z,19.50
2018-09-05T07:25:57.706Z,19.40
2018-09-05T07:28:26.189Z,19.90
2018-09-05T07:30:54.747Z,19.90
2018-09-05T07:33:23.225Z,20.40
2018-09-05T07:35:51.728Z,20.40
2018-09-05T07:38:20.256Z,20.30
2018-09-05T07:40:48.842Z,20.30
2018-09-05T07:43:17.735Z,20.40
2018-09-05T07:45:46.314Z,20.50
2018-09-05T07:48:14.911Z,20.50
2018-09-05T07:50:43.688Z,21.00
2018-09-05T07:53:12.229Z,21.50
2018-09-05T07:55:40.766Z,21.30
2018-09-05T07:58:09.232Z,21.60
2018-09-05T08:00:37.808Z,22.00
2018-09-05T08:03:06.352Z,22.50
2018-09-05T08:05:34.855Z,22.50
2018-09-05T08:08:03.340Z,22.20
2018-09-05T08:10:31.807Z,22.70
2018-09-05T08:13:00.294Z,22.60
2018-09-05T08:15:28.770Z,22.60
2018-09-05T08:17:57.235Z,22.80
2018-09-05T08:20:25.732Z,22.80
2018-09-05T08:22:54.314Z,22.60
2018-09-05T08:25:22.912Z,22.70
2018-09-05T08:27:51.476Z,22.30
2018-09-05T08:30:20.100Z,21.90
2018-09-05T08:32:48.583Z,22.00
2018-09-05T08:35:17.275Z,21.90
2018-09-05T08:37:45.547Z,22.10
2018-09-05T08:40:14.062Z,22.40
2018-09-05T08:42:42.606Z,21.90
2018-09-05T08:45:11.240Z,22.10
2018-09-05T08:47:39.649Z,22.50
2018-09-05T08:50:08.202Z,22.80
2018-09-05T08:52:36.698Z,21.80
2018-09-05T08:55:05.259Z,22.10
2018-09-05T08:57:33.700Z,22.00
2018-09-05T09:00:02.184Z,22.90
2018-09-05T09:02:30.832Z,23.70
2018-09-05T09:04:59.430Z,24.10
2018-09-05T09:07:28.251Z,24.40
2018-09-05T09:09:57.044Z,23.90
2018-09-05T09:12:25.583Z,24.30
2018-09-05T09:14:54.165Z,24.00
2018-09-05T09:17:22.745Z,23.40
2018-09-05T09:19:51.225Z,23.40
2018-09-05T09:22:19.653Z,24.50
2018-09-05T09:24:48.258Z,23.80
2018-09-05T09:27:16.755Z,24.10
2018-09-05T09:29:45.307Z,23.20
2018-09-05T09:32:13.864Z,24.70
2018-09-05T09:34:42.425Z,25.80
2018-09-05T09:37:10.989Z,26.60
2018-09-05T09:39:39.447Z,26.70
2018-09-05T09:42:08.339Z,27.10
2018-09-05T09:44:36.893Z,26.40
2018-09-05T09:47:05.436Z,25.90
2018-09-05T09:49:33.969Z,25.70
2018-09-05T09:52:07.870Z,25.30
2018-09-05T09:54:36.382Z,24.60
2018-09-05T09:57:05.004Z,24.90
2018-09-05T09:59:33.459Z,25.60
2018-09-05T10:02:07.320Z,27.00
2018-09-05T10:04:41.367Z,26.70
2018-09-05T10:07:15.249Z,26.20
2018-09-05T10:09:49.380Z,26.30
2018-09-05T10:12:23.203Z,24.60
2018-09-05T10:14:56.839Z,25.50
2018-09-05T10:17:30.631Z,25.50
2018-09-05T10:19:59.836Z,26.70
2018-09-05T10:22:28.722Z,28.50
2018-09-05T10:24:57.631Z,30.10
2018-09-05T10:27:26.906Z,29.00
2018-09-05T10:29:55.975Z,30.00
2018-09-05T10:32:25.040Z,25.30
2018-09-05T10:34:54.520Z,24.60
2018-09-05T10:37:23.222Z,24.20
2018-09-05T10:39:51.687Z,24.60
2018-09-05T10:42:20.270Z,24.30
2018-09-05T10:44:48.832Z,24.20
2018-09-05T10:47:17.365Z,24.50
2018-09-05T10:49:45.943Z,24.60
2018-09-05T10:52:14.756Z,24.70
2018-09-05T10:54:43.446Z,25.70
2018-09-05T10:57:11.922Z,25.40
2018-09-05T10:59:40.494Z,26.50
2018-09-05T11:02:08.940Z,27.70
2018-09-05T11:04:37.449Z,27.80
2018-09-05T11:07:06.093Z,27.70
2018-09-05T11:09:34.628Z,26.80
2018-09-05T11:12:03.096Z,25.20
2018-09-05T11:14:31.574Z,25.90
2018-09-05T11:17:00.036Z,26.70
2018-09-05T11:19:28.523Z,26.30
2018-09-05T11:21:56.989Z,24.60
2018-09-05T11:24:25.459Z,26.00
2018-09-05T11:26:54.113Z,27.90
2018-09-05T11:29:22.642Z,27.90
2018-09-05T11:31:51.359Z,28.50
2018-09-05T11:34:20.129Z,28.90
2018-09-05T11:36:48.768Z,27.40
2018-09-05T11:39:17.283Z,27.60
2018-09-05T11:41:45.746Z,25.60
2018-09-05T11:44:14.234Z,25.40
2018-09-05T11:46:42.667Z,25.50
2018-09-05T11:49:11.236Z,24.20
2018-09-05T11:51:39.735Z,25.10
2018-09-05T11:54:09.090Z,26.60
2018-09-05T11:56:37.577Z,28.20
2018-09-05T11:59:06.329Z,29.60
2018-09-05T12:01:34.725Z,30.20
2018-09-05T12:04:03.259Z,31.00
2018-09-05T12:06:31.775Z,29.50
2018-09-05T12:09:00.207Z,29.70
2018-09-05T12:11:28.686Z,28.80
2018-09-05T12:13:57.205Z,30.10
2018-09-05T12:16:25.808Z,29.10
2018-09-05T12:18:54.353Z,27.90
2018-09-05T12:21:23.105Z,27.10
2018-09-05T12:23:51.563Z,27.70
2018-09-05T12:26:20.096Z,27.10
2018-09-05T12:28:48.606Z,26.60
2018-09-05T12:31:17.279Z,26.00
2018-09-05T12:33:45.749Z,27.40
2018-09-05T12:36:14.266Z,27.40
2018-09-05T12:38:42.944Z,27.80
2018-09-05T12:41:11.413Z,28.90
2018-09-05T12:43:39.923Z,30.00
2018-09-05T12:46:08.506Z,28.90
2018-09-05T12:48:37.132Z,28.80
2018-09-05T12:51:05.650Z,28.60
2018-09-05T12:53:34.228Z,28.90
2018-09-05T12:56:02.897Z,30.20
2018-09-05T12:58:31.643Z,27.60
2018-09-05T13:01:00.158Z,29.00
2018-09-05T13:03:28.912Z,30.00
2018-09-05T13:05:57.434Z,30.00
2018-09-05T13:08:26.027Z,28.50
2018-09-05T13:10:54.597Z,27.60
2018-09-05T13:13:23.122Z,28.30
2018-09-05T13:15:51.698Z,27.80
2018-09-05T13:18:20.203Z,28.60
2018-09-05T13:20:48.727Z,27.60
2018-09-05T13:23:17.218Z,25.70
2018-09-05T13:25:45.829Z,26.00
2018-09-05T13:28:14.383Z,28.20
2018-09-05T13:30:43.602Z,28.50
2018-09-05T13:33:12.389Z,26.90
2018-09-05T13:35:41.178Z,28.30
2018-09-05T13:38:09.930Z,26.80
2018-09-05T13:40:38.666Z,25.10
2018-09-05T13:43:07.314Z,24.90
2018-09-05T13:45:35.833Z,25.00
2018-09-05T13:48:04.380Z,23.40
2018-09-05T13:50:32.933Z,23.10
2018-09-05T13:53:01.476Z,23.20
2018-09-05T13:55:30.062Z,23.10
2018-09-05T13:57:58.556Z,23.00
2018-09-05T14:00:27.098Z,23.20
2018-09-05T14:02:55.648Z,23.30
2018-09-05T14:05:24.131Z,23.20
2018-09-05T14:07:52.592Z,23.40
2018-09-05T14:10:21.145Z,23.80
2018-09-05T14:12:49.611Z,24.20
2018-09-05T14:15:18.257Z,24.30
2018-09-05T14:17:46.929Z,24.20
2018-09-05T14:20:15.773Z,23.90
2018-09-05T14:22:44.320Z,23.90
2018-09-05T14:25:12.909Z,23.50
2018-09-05T14:27:41.374Z,23.60
2018-09-05T14:30:09.859Z,23.80
2018-09-05T14:32:38.486Z,24.30
2018-09-05T14:35:07.013Z,25.70
2018-09-05T14:37:35.543Z,27.10
2018-09-05T14:40:04.161Z,27.70
2018-09-05T14:42:32.763Z,28.60
2018-09-05T14:45:01.227Z,27.90
2018-09-05T14:47:29.745Z,26.70
2018-09-05T14:49:58.211Z,25.60
2018-09-05T14:52:26.673Z,24.80
2018-09-05T14:54:55.147Z,24.50
2018-09-05T14:57:23.937Z,24.00
2018-09-05T14:59:52.570Z,23.50
2018-09-05T15:02:21.073Z,23.70
2018-09-05T15:04:49.635Z,23.60
2018-09-05T15:07:18.233Z,23.60
2018-09-05T15:09:46.701Z,23.10
2018-09-05T15:12:15.227Z,23.20
2018-09-05T15:14:43.716Z,23.40
2018-09-05T15:17:12.332Z,23.60
2018-09-05T15:19:41.753Z,23.70
2018-09-05T15:22:10.309Z,23.60
2018-09-05T15:24:38.844Z,23.40
2018-09-05T15:27:07.308Z,23.30
2018-09-05T15:29:35.859Z,23.40
2018-09-05T15:32:04.440Z,23.40
2018-09-05T15:34:33.044Z,23.50
2018-09-05T15:37:01.712Z,23.40
2018-09-05T15:39:30.492Z,23.30
2018-09-05T15:41:58.989Z,23.20
2018-09-05T15:44:27.573Z,23.20
2018-09-05T15:46:56.112Z,23.10
2018-09-05T15:49:24.530Z,23.10
2018-09-05T15:51:55.954Z,22.80
2018-09-05T15:54:25.716Z,23.00
2018-09-05T15:56:54.292Z,23.10
2018-09-05T15:59:23.573Z,23.10
2018-09-05T16:01:52.793Z,23.30
2018-09-05T16:04:21.360Z,23.30
2018-09-05T16:06:49.860Z,23.20
2018-09-05T16:09:18.697Z,23.10
2018-09-05T16:11:47.211Z,23.20
2018-09-05T16:14:15.805Z,23.20
2018-09-05T16:16:44.419Z,23.40
2018-09-05T16:19:12.930Z,23.40
2018-09-05T16:21:41.691Z,23.40
2018-09-05T16:24:10.358Z,23.60
2018-09-05T16:26:39.009Z,23.60
2018-09-05T16:29:07.844Z,23.70
2018-09-05T16:31:36.458Z,23.60
2018-09-05T16:34:05.069Z,23.50
2018-09-05T16:36:33.585Z,23.40
2018-09-05T16:39:02.331Z,23.30
2018-09-05T16:41:30.916Z,23.40
2018-09-05T16:43:59.465Z,23.40
2018-09-05T16:46:27.963Z,23.40
2018-09-05T16:48:56.601Z,23.20
2018-09-05T16:51:25.241Z,23.30
2018-09-05T16:53:53.828Z,23.10
2018-09-05T16:56:22.668Z,23.10
2018-09-05T16:58:51.220Z,23.00
2018-09-05T17:01:20.314Z,23.10
2018-09-05T17:03:49.088Z,22.90
2018-09-05T17:06:17.856Z,22.90
2018-09-05T17:08:46.404Z,22.80
2018-09-05T17:11:15.151Z,22.60
2018-09-05T17:13:44.865Z,22.50
2018-09-05T17:16:13.713Z,22.30
2018-09-05T17:18:42.395Z,22.20
2018-09-05T17:21:11.008Z,22.20
2018-09-05T17:23:39.729Z,22.00
2018-09-05T17:26:08.366Z,21.90
2018-09-05T17:28:37.006Z,21.80
2018-09-05T17:31:05.547Z,21.70
2018-09-05T17:33:34.143Z,21.60
2018-09-05T17:36:02.615Z,21.50
2018-09-05T17:38:31.253Z,21.30
2018-09-05T17:40:59.805Z,21.30
2018-09-05T17:43:28.331Z,21.20
2018-09-05T17:45:56.843Z,21.10
2018-09-05T17:48:25.415Z,21.00
2018-09-05T17:50:54.082Z,20.90
2018-09-05T17:53:22.672Z,20.90
2018-09-05T17:55:51.287Z,20.80
2018-09-05T17:58:19.852Z,20.70
2018-09-05T18:00:48.428Z,20.60
2018-09-05T18:03:16.943Z,20.50
2018-09-05T18:05:45.526Z,20.50
2018-09-05T18:08:14.131Z,20.40
2018-09-05T18:10:42.863Z,20.30
2018-09-05T18:13:11.492Z,20.20
2018-09-05T18:15:40.118Z,20.20
2018-09-05T18:18:09.960Z,20.10
2018-09-05T18:20:38.684Z,20.00
2018-09-05T18:23:07.490Z,20.00
2018-09-05T18:25:37.306Z,20.00
2018-09-05T18:28:06.106Z,19.90
2018-09-05T18:30:34.629Z,19.90
2018-09-05T18:33:03.529Z,19.80
2018-09-05T18:35:32.263Z,19.80
2018-09-05T18:38:01.378Z,19.70
2018-09-05T18:40:30.192Z,19.60
2018-09-05T18:42:58.901Z,19.70
2018-09-05T18:45:27.489Z,19.60
2018-09-05T18:47:57.614Z,19.60
2018-09-05T18:50:26.320Z,19.40
2018-09-05T18:53:00.233Z,19.30
2018-09-05T18:55:29.864Z,19.20
2018-09-05T18:57:58.579Z,19.20
2018-09-05T19:00:27.203Z,19.10
2018-09-05T19:02:55.896Z,19.00
2018-09-05T19:05:24.614Z,19.00
2018-09-05T19:07:53.260Z,18.90
2018-09-05T19:10:21.947Z,18.80
2018-09-05T19:12:50.604Z,18.80
2018-09-05T19:15:19.297Z,18.70
2018-09-05T19:17:48.120Z,18.70
2018-09-05T19:20:16.792Z,18.60
2018-09-05T19:22:45.471Z,18.60
2018-09-05T19:25:14.091Z,18.50
2018-09-05T19:27:42.732Z,18.50
2018-09-05T19:30:11.463Z,18.40
2018-09-05T19:32:40.127Z,18.40
2018-09-05T19:35:08.886Z,18.40
2018-09-05T19:37:38.498Z,18.40
2018-09-05T19:40:07.809Z,18.40
2018-09-05T19:42:37.109Z,18.30
2018-09-05T19:45:06.187Z,18.30
2018-09-05T19:47:34.928Z,18.20
2018-09-05T19:50:04.141Z,18.20
2018-09-05T19:52:36.372Z,18.20
2018-09-05T19:55:05.290Z,18.10
2018-09-05T19:57:33.852Z,18.10
2018-09-05T20:00:02.581Z,18.10
2018-09-05T20:02:31.309Z,18.10
2018-09-05T20:04:59.904Z,18.00
2018-09-05T20:07:28.475Z,18.00
2018-09-05T20:09:57.013Z,18.00
2018-09-05T20:12:25.517Z,17.80
2018-09-05T20:14:54.104Z,17.80
2018-09-05T20:17:22.582Z,17.70
2018-09-05T20:19:51.348Z,17.70
2018-09-05T20:22:20.005Z,17.70
2018-09-05T20:24:48.674Z,17.60
2018-09-05T20:27:17.280Z,17.50
2018-09-05T20:29:45.841Z,17.50
2018-09-05T20:32:14.382Z,17.40
2018-09-05T20:34:42.947Z,17.40
2018-09-05T20:37:11.672Z,17.40
2018-09-05T20:39:40.176Z,17.30
2018-09-05T20:42:08.750Z,17.30
2018-09-05T20:44:37.363Z,17.30
2018-09-05T20:47:05.956Z,17.20
2018-09-05T20:49:34.440Z,17.20
2018-09-05T20:52:03.003Z,17.20
2018-09-05T20:54:31.437Z,17.20
2018-09-05T20:56:59.886Z,17.10
2018-09-05T20:59:28.430Z,17.10
2018-09-05T21:01:57.063Z,17.10
2018-09-05T21:04:25.605Z,17.00
2018-09-05T21:06:54.346Z,16.90
2018-09-05T21:09:23.037Z,16.90
2018-09-05T21:11:52.151Z,16.80
2018-09-05T21:14:20.746Z,16.80
2018-09-05T21:16:49.374Z,16.80
2018-09-05T21:19:17.925Z,16.80
2018-09-05T21:21:46.458Z,16.80
2018-09-05T21:24:14.979Z,16.70
2018-09-05T21:26:43.509Z,16.70
2018-09-05T21:29:11.957Z,16.70
2018-09-05T21:31:40.546Z,16.70
2018-09-05T21:34:09.017Z,16.60
2018-09-05T21:36:37.481Z,16.60
2018-09-05T21:39:08.047Z,16.60
2018-09-05T21:41:36.607Z,16.60
2018-09-05T21:44:05.307Z,16.50
2018-09-05T21:46:33.785Z,16.50
2018-09-05T21:49:02.379Z,16.50
2018-09-05T21:51:30.965Z,16.50
2018-09-05T21:53:59.657Z,16.40
2018-09-05T21:56:28.290Z,16.40
2018-09-05T21:58:56.815Z,16.30
2018-09-05T22:01:25.414Z,16.30
2018-09-05T22:03:53.895Z,16.30
2018-09-05T22:06:22.368Z,16.20
2018-09-05T22:08:50.898Z,16.20
2018-09-05T22:11:25.055Z,16.20
2018-09-05T22:13:53.765Z,16.10
2018-09-05T22:16:22.239Z,16.10
2018-09-05T22:18:50.751Z,16.10
2018-09-05T22:21:19.440Z,16.00
2018-09-05T22:23:47.955Z,16.00
2018-09-05T22:26:16.581Z,15.90
2018-09-05T22:28:45.024Z,15.90
2018-09-05T22:31:13.580Z,15.90
2018-09-05T22:33:42.031Z,15.90
2018-09-05T22:36:10.619Z,15.90
2018-09-05T22:38:39.207Z,15.80
2018-09-05T22:41:07.850Z,15.80
2018-09-05T22:43:47.773Z,15.80
2018-09-05T22:46:27.441Z,15.80
2018-09-05T22:49:07.275Z,15.80
2018-09-05T22:52:22.435Z,15.70
2018-09-05T22:59:09.528Z,15.70
2018-09-05T23:01:49.351Z,15.70
2018-09-05T23:04:28.356Z,15.50
2018-09-05T23:09:10.936Z,15.50
2018-09-05T23:11:49.451Z,15.40
2018-09-05T23:14:41.535Z,15.40
2018-09-05T23:17:21.843Z,15.40
2018-09-05T23:21:01.705Z,15.40
2018-09-05T23:23:41.556Z,15.40
2018-09-05T23:26:10.285Z,15.30
2018-09-05T23:28:39.638Z,15.30
2018-09-05T23:31:08.097Z,15.30
2018-09-05T23:33:37.005Z,15.30
2018-09-05T23:36:05.953Z,15.30
2018-09-05T23:38:34.405Z,15.30
2018-09-05T23:41:02.908Z,15.30
2018-09-05T23:43:31.612Z,15.20
2018-09-05T23:46:00.075Z,15.20
2018-09-05T23:48:28.530Z,15.20
2018-09-05T23:50:56.965Z,15.20
2018-09-05T23:53:25.955Z,15.20
2018-09-05T23:55:54.704Z,15.10
2018-09-05T23:58:23.829Z,15.10
